createdAt,value
2022-09-05T00:01:28.146Z,18.71
2022-09-05T00:04:23.616Z,18.64
2022-09-05T00:06:57.046Z,18.57
2022-09-05T00:09:40.626Z,18.43
2022-09-05T00:12:11.927Z,18.51
2022-09-05T00:15:17.358Z,18.57
2022-09-05T00:19:01.504Z,18.61
2022-09-05T00:24:22.715Z,18.37
2022-09-05T00:24:35.504Z,18.16
2022-09-05T00:26:50.564Z,17.97
2022-09-05T00:29:42.034Z,17.90
2022-09-05T00:32:25.590Z,17.97
2022-09-05T00:35:11.296Z,18.01
2022-09-05T00:37:42.572Z,18.16
2022-09-05T00:40:25.308Z,18.06
2022-09-05T00:42:56.032Z,18.10
2022-09-05T00:45:29.897Z,18.06
2022-09-05T00:48:06.546Z,17.97
2022-09-05T00:50:45.019Z,17.99
2022-09-05T00:53:17.984Z,17.99
2022-09-05T00:55:58.871Z,18.11
2022-09-05T00:58:48.672Z,18.00
2022-09-05T01:01:33.305Z,18.07
2022-09-05T01:04:20.790Z,17.99
2022-09-05T01:07:16.532Z,18.18
2022-09-05T01:09:51.298Z,18.13
2022-09-05T01:12:50.162Z,18.10
2022-09-05T01:15:32.153Z,18.09
2022-09-05T01:18:30.271Z,18.07
2022-09-05T01:21:34.032Z,18.06
2022-09-05T01:24:27.993Z,17.94
2022-09-05T01:28:15.410Z,17.80
2022-09-05T01:30:38.552Z,17.72
2022-09-05T01:33:18.958Z,17.73
2022-09-05T01:36:03.568Z,17.85
2022-09-05T01:38:51.678Z,17.97
2022-09-05T01:41:37.482Z,18.04
2022-09-05T01:44:30.498Z,18.01
2022-09-05T01:47:26.677Z,18.01
2022-09-05T01:50:07.988Z,18.13
2022-09-05T01:53:03.257Z,18.20
2022-09-05T01:56:05.087Z,18.13
2022-09-05T01:59:04.628Z,18.04
2022-09-05T02:01:40.390Z,18.18
2022-09-05T02:04:36.393Z,18.16
2022-09-05T02:07:19.930Z,18.11
2022-09-05T02:10:19.601Z,18.14
2022-09-05T02:12:58.465Z,18.09
2022-09-05T02:15:42.931Z,18.21
2022-09-05T02:18:33.875Z,18.30
2022-09-05T02:21:03.755Z,18.31
2022-09-05T02:23:40.784Z,18.27
2022-09-05T02:26:18.966Z,18.27
2022-09-05T02:28:55.057Z,18.38
2022-09-05T02:31:29.501Z,18.41
2022-09-05T02:34:04.923Z,18.41
2022-09-05T02:36:40.816Z,18.34
2022-09-05T02:45:02.857Z,18.36
2022-09-05T02:45:10.274Z,18.40
2022-09-05T02:45:26.686Z,18.55
2022-09-05T02:48:14.751Z,18.54
2022-09-05T02:57:23.229Z,18.69
2022-09-05T02:57:35.238Z,18.52
2022-09-05T02:57:37.441Z,18.55
2022-09-05T02:59:58.250Z,18.69
2022-09-05T03:02:32.458Z,18.73
2022-09-05T03:05:07.121Z,18.78
2022-09-05T03:07:52.245Z,18.69
2022-09-05T03:10:54.375Z,18.62
2022-09-05T03:13:55.587Z,18.64
2022-09-05T03:16:47.308Z,18.55
2022-09-05T03:19:55.937Z,18.48
2022-09-05T03:23:01.841Z,18.43
2022-09-05T03:25:59.815Z,18.41
2022-09-05T03:29:11.963Z,18.38
2022-09-05T03:32:00.245Z,18.43
2022-09-05T03:35:04.094Z,18.48
2022-09-05T03:38:10.886Z,18.41
2022-09-05T03:40:58.071Z,18.44
2022-09-05T03:43:59.436Z,18.30
2022-09-05T03:46:41.810Z,18.26
2022-09-05T03:52:58.384Z,18.31
2022-09-05T03:57:17.339Z,18.27
2022-09-05T03:57:26.006Z,18.17
2022-09-05T03:59:12.927Z,18.09
2022-09-05T04:05:43.332Z,18.11
2022-09-05T04:08:08.649Z,18.20
2022-09-05T04:08:18.451Z,18.09
2022-09-05T04:10:35.318Z,18.10
2022-09-05T04:13:09.420Z,18.20
2022-09-05T04:15:42.341Z,18.17
2022-09-05T04:18:32.747Z,18.16
2022-09-05T04:21:06.218Z,18.18
2022-09-05T04:23:45.563Z,18.13
2022-09-05T04:26:36.131Z,18.10
2022-09-05T04:29:16.322Z,18.16
2022-09-05T04:32:05.505Z,18.11
2022-09-05T04:34:57.423Z,18.07
2022-09-05T04:37:48.794Z,17.97
2022-09-05T04:40:45.445Z,17.96
2022-09-05T04:43:24.564Z,17.96
2022-09-05T04:45:53.590Z,17.96
2022-09-05T04:48:27.567Z,17.89
2022-09-05T04:51:12.796Z,17.79
2022-09-05T04:54:08.014Z,17.79
2022-09-05T04:56:42.737Z,17.70
2022-09-05T05:01:31.140Z,17.72
2022-09-05T05:06:09.585Z,17.80
2022-09-05T05:06:12.918Z,17.76
2022-09-05T05:08:00.192Z,17.78
2022-09-05T05:14:02.616Z,17.72
2022-09-05T05:18:02.333Z,17.82
2022-09-05T05:18:15.327Z,17.86
2022-09-05T05:19:22.044Z,17.99
2022-09-05T05:21:54.425Z,18.07
2022-09-05T05:24:27.823Z,18.13
2022-09-05T05:27:05.001Z,18.09
2022-09-05T05:29:43.221Z,18.10
2022-09-05T05:32:43.601Z,18.14
2022-09-05T05:35:11.292Z,18.16
2022-09-05T05:37:43.928Z,18.30
2022-09-05T05:40:20.502Z,18.52
2022-09-05T05:42:48.896Z,19.26
2022-09-05T05:45:19.019Z,19.91
2022-09-05T05:47:53.079Z,20.68
2022-09-05T05:50:34.214Z,21.30
2022-09-05T05:53:43.110Z,22.12
2022-09-05T05:56:51.331Z,22.57
2022-09-05T05:59:42.764Z,23.28
2022-09-05T06:03:26.352Z,24.44
2022-09-05T06:06:22.635Z,25.19
2022-09-05T06:14:48.099Z,25.90
2022-09-05T06:15:01.328Z,26.89
2022-09-05T06:16:12.941Z,27.85
2022-09-05T06:19:11.641Z,28.67
2022-09-05T06:22:15.941Z,28.77
2022-09-05T06:25:40.479Z,29.57
2022-09-05T06:28:21.040Z,30.23
2022-09-05T06:31:24.607Z,30.56
2022-09-05T06:33:59.298Z,31.05
2022-09-05T06:36:41.550Z,31.32
2022-09-05T06:39:15.008Z,31.58
2022-09-05T06:41:58.614Z,32.21
2022-09-05T06:44:41.484Z,32.89
2022-09-05T06:47:23.865Z,33.05
2022-09-05T06:50:24.233Z,33.56
2022-09-05T06:53:26.677Z,33.74
2022-09-05T06:56:03.174Z,34.15
2022-09-05T06:59:10.643Z,34.34
2022-09-05T07:02:00.383Z,34.81
2022-09-05T07:05:23.295Z,34.78
2022-09-05T07:07:27.825Z,34.34
2022-09-05T07:10:00.423Z,34.27
2022-09-05T07:12:31.424Z,34.64
2022-09-05T07:15:09.379Z,35.13
2022-09-05T07:18:06.500Z,35.05
2022-09-05T07:21:16.815Z,34.89
2022-09-05T07:24:05.692Z,35.09
2022-09-05T07:26:53.907Z,35.60
2022-09-05T07:29:22.228Z,36.51
2022-09-05T07:31:56.118Z,37.43
2022-09-05T07:34:29.729Z,38.19
2022-09-05T07:37:14.760Z,38.45
2022-09-05T07:39:47.658Z,38.67
2022-09-05T07:42:18.189Z,38.06
2022-09-05T07:44:53.921Z,37.67
2022-09-05T07:47:25.857Z,38.00
2022-09-05T07:50:42.863Z,38.32
2022-09-05T07:56:49.871Z,38.89
2022-09-05T07:57:00.912Z,38.63
2022-09-05T07:58:34.630Z,38.25
2022-09-05T08:01:02.815Z,38.28
2022-09-05T08:03:30.807Z,38.11
2022-09-05T08:06:02.601Z,37.47
2022-09-05T08:08:39.779Z,37.03
2022-09-05T08:11:25.598Z,37.40
2022-09-05T08:14:21.901Z,38.18
2022-09-05T08:16:47.208Z,38.24
2022-09-05T08:19:41.624Z,38.31
2022-09-05T08:22:20.281Z,38.02
2022-09-05T08:24:59.223Z,39.31
2022-09-05T08:27:31.662Z,39.04
2022-09-05T08:30:25.783Z,39.78
2022-09-05T08:33:10.715Z,39.78
2022-09-05T08:35:44.474Z,39.53
2022-09-05T08:38:15.440Z,39.71
2022-09-05T08:40:51.175Z,39.84
2022-09-05T08:46:35.258Z,40.37
2022-09-05T08:46:41.511Z,40.39
2022-09-05T08:49:46.363Z,40.71
2022-09-05T08:52:22.134Z,40.84
2022-09-05T08:55:06.851Z,41.56
2022-09-05T08:58:02.115Z,41.42
2022-09-05T09:00:35.997Z,40.77
2022-09-05T09:03:13.303Z,40.32
2022-09-05T09:06:15.687Z,40.93
2022-09-05T09:08:56.431Z,40.42
2022-09-05T09:11:32.285Z,40.88
2022-09-05T09:14:30.195Z,41.41
2022-09-05T09:17:07.745Z,40.25
2022-09-05T09:19:47.692Z,39.75
2022-09-05T09:22:23.376Z,39.94
2022-09-05T09:25:14.289Z,40.12
2022-09-05T09:28:47.171Z,40.02
2022-09-05T09:30:57.318Z,41.14
2022-09-05T09:33:37.302Z,41.84
2022-09-05T09:36:14.628Z,40.79
2022-09-05T09:38:57.640Z,40.12
2022-09-05T09:41:56.208Z,40.40
2022-09-05T09:45:22.706Z,39.95
2022-09-05T09:48:27.034Z,39.45
2022-09-05T09:51:13.062Z,39.35
2022-09-05T09:53:57.897Z,39.76
2022-09-05T09:56:56.567Z,39.86
2022-09-05T09:59:54.439Z,39.84
2022-09-05T10:10:19.209Z,40.50
2022-09-05T10:10:44.578Z,41.69
2022-09-05T10:10:45.888Z,42.41
2022-09-05T10:12:23.625Z,41.99
2022-09-05T10:15:19.719Z,41.89
2022-09-05T10:18:05.045Z,41.47
2022-09-05T10:20:57.912Z,41.38
2022-09-05T10:24:37.988Z,41.62
2022-09-05T10:27:22.133Z,40.40
2022-09-05T10:30:07.125Z,40.43
2022-09-05T10:35:08.728Z,41.18
2022-09-05T10:35:37.670Z,41.51
2022-09-05T10:38:11.614Z,40.22
2022-09-05T10:41:11.222Z,39.04
2022-09-05T10:43:38.819Z,39.40
2022-09-05T10:46:46.631Z,39.79
2022-09-05T10:49:11.832Z,39.41
2022-09-05T10:51:51.903Z,38.40
2022-09-05T10:54:35.598Z,36.89
2022-09-05T10:57:12.906Z,35.54
2022-09-05T11:02:23.119Z,34.85
2022-09-05T11:02:57.781Z,35.93
2022-09-05T11:05:28.405Z,37.33
2022-09-05T11:08:07.601Z,37.75
2022-09-05T11:10:38.104Z,37.75
2022-09-05T11:13:16.946Z,38.87
2022-09-05T11:16:13.406Z,39.27
2022-09-05T11:19:03.958Z,39.89
2022-09-05T11:22:05.304Z,40.19
2022-09-05T11:24:49.981Z,39.50
2022-09-05T11:27:32.665Z,39.84
2022-09-05T11:30:05.372Z,38.46
2022-09-05T11:37:23.848Z,38.96
2022-09-05T11:39:54.440Z,39.96
2022-09-05T11:39:56.950Z,39.95
2022-09-05T11:42:19.658Z,40.05
2022-09-05T11:45:05.759Z,40.13
2022-09-05T11:48:09.832Z,39.67
2022-09-05T11:51:15.995Z,36.25
2022-09-05T11:54:24.884Z,37.88
2022-09-05T11:57:33.423Z,37.61
2022-09-05T12:00:31.544Z,38.19
2022-09-05T12:03:59.236Z,38.51
2022-09-05T12:07:26.994Z,39.69
2022-09-05T12:10:47.361Z,39.24
2022-09-05T12:13:21.793Z,38.11
2022-09-05T12:16:07.775Z,38.36
2022-09-05T12:18:44.696Z,38.48
2022-09-05T12:21:31.728Z,37.54
2022-09-05T12:25:16.065Z,36.52
2022-09-05T12:27:38.929Z,36.21
2022-09-05T12:30:00.052Z,36.29
2022-09-05T12:34:06.439Z,36.35
2022-09-05T12:36:06.950Z,35.93
2022-09-05T12:40:59.341Z,37.23
2022-09-05T12:41:36.165Z,38.73
2022-09-05T12:44:41.082Z,39.26
2022-09-05T12:47:17.063Z,39.34
2022-09-05T12:50:02.648Z,38.48
2022-09-05T12:52:42.483Z,38.01
2022-09-05T12:55:17.338Z,37.55
2022-09-05T13:02:13.314Z,37.53
2022-09-05T13:03:06.705Z,37.38
2022-09-05T13:03:48.502Z,37.60
2022-09-05T13:06:31.004Z,36.20
2022-09-05T13:09:04.537Z,35.15
2022-09-05T13:14:49.835Z,34.28
2022-09-05T13:14:57.458Z,33.63
2022-09-05T13:17:44.309Z,33.36
2022-09-05T13:20:19.586Z,33.46
2022-09-05T13:22:50.428Z,33.52
2022-09-05T13:25:26.987Z,33.41
2022-09-05T13:28:02.120Z,33.05
2022-09-05T13:32:23.814Z,32.79
2022-09-05T13:38:02.581Z,32.86
2022-09-05T13:38:11.133Z,32.76
2022-09-05T13:39:12.089Z,32.53
2022-09-05T13:41:45.619Z,32.58
2022-09-05T13:44:25.306Z,32.54
2022-09-05T13:47:00.781Z,32.38
2022-09-05T13:49:35.182Z,32.26
2022-09-05T13:52:20.709Z,32.43
2022-09-05T13:54:53.030Z,32.41
2022-09-05T13:57:33.224Z,32.09
2022-09-05T14:00:38.298Z,32.26
2022-09-05T14:03:50.621Z,32.21
2022-09-05T14:06:49.335Z,32.06
2022-09-05T14:10:00.362Z,32.17
2022-09-05T14:12:38.693Z,32.24
2022-09-05T14:15:15.059Z,31.97
2022-09-05T14:17:57.887Z,32.00
2022-09-05T14:20:49.335Z,31.89
2022-09-05T14:23:22.218Z,31.72
2022-09-05T14:25:54.545Z,31.63
2022-09-05T14:28:33.752Z,31.39
2022-09-05T14:36:13.655Z,31.26
2022-09-05T14:37:40.125Z,31.15
2022-09-05T14:37:48.279Z,31.19
2022-09-05T14:40:29.822Z,30.99
2022-09-05T14:43:37.551Z,30.70
2022-09-05T14:46:28.178Z,30.60
2022-09-05T14:49:28.983Z,30.56
2022-09-05T14:51:58.342Z,30.54
2022-09-05T15:02:45.566Z,30.50
2022-09-05T15:02:52.509Z,30.52
2022-09-05T15:03:05.318Z,30.50
2022-09-05T15:05:41.732Z,30.53
2022-09-05T15:08:39.566Z,30.44
2022-09-05T15:12:16.943Z,30.36
2022-09-05T15:13:58.144Z,29.93
2022-09-05T15:16:26.777Z,30.08
2022-09-05T15:18:56.262Z,29.88
2022-09-05T15:21:33.291Z,29.95
2022-09-05T15:24:03.726Z,29.96
2022-09-05T15:26:32.901Z,29.85
2022-09-05T15:29:14.520Z,29.59
2022-09-05T15:31:43.014Z,29.37
2022-09-05T15:34:21.957Z,29.10
2022-09-05T15:36:49.861Z,28.97
2022-09-05T15:39:22.842Z,28.94
2022-09-05T15:41:50.872Z,29.03
2022-09-05T15:44:26.881Z,28.99
2022-09-05T15:46:59.769Z,28.90
2022-09-05T15:49:32.521Z,28.77
2022-09-05T15:52:03.885Z,28.70
2022-09-05T15:54:38.480Z,28.60
2022-09-05T15:57:17.489Z,28.53
2022-09-05T15:59:52.262Z,28.52
2022-09-05T16:02:24.184Z,28.41
2022-09-05T16:10:29.675Z,28.39
2022-09-05T16:10:49.483Z,28.36
2022-09-05T16:11:05.361Z,28.39
2022-09-05T16:13:53.025Z,28.46
2022-09-05T16:23:13.988Z,28.55
2022-09-05T16:23:28.411Z,28.60
2022-09-05T16:23:28.694Z,28.60
2022-09-05T16:25:17.085Z,28.66
2022-09-05T16:27:54.083Z,28.63
2022-09-05T16:30:28.146Z,28.57
2022-09-05T16:33:02.372Z,28.55
2022-09-05T16:35:33.518Z,28.48
2022-09-05T16:38:10.623Z,28.42
2022-09-05T16:40:43.674Z,28.32
2022-09-05T16:43:18.274Z,28.29
2022-09-05T16:45:53.380Z,28.23
2022-09-05T16:48:45.271Z,28.23
2022-09-05T16:51:35.601Z,28.11
2022-09-05T16:54:11.204Z,28.01
2022-09-05T16:56:44.444Z,27.97
2022-09-05T16:59:17.853Z,27.88
2022-09-05T17:02:07.906Z,27.82
2022-09-05T17:05:04.282Z,27.77
2022-09-05T17:07:46.140Z,27.65
2022-09-05T17:10:18.227Z,27.67
2022-09-05T17:12:46.109Z,27.65
2022-09-05T17:15:17.500Z,27.54
2022-09-05T17:18:19.317Z,27.50
2022-09-05T17:20:49.631Z,27.43
2022-09-05T17:28:41.754Z,27.33
2022-09-05T17:29:28.321Z,27.23
2022-09-05T17:29:33.945Z,27.13
2022-09-05T17:32:00.614Z,27.04
2022-09-05T17:34:49.505Z,26.96
2022-09-05T17:37:54.733Z,26.83
2022-09-05T17:40:59.227Z,26.73
2022-09-05T17:43:30.058Z,26.63
2022-09-05T17:46:14.298Z,26.48
2022-09-05T17:49:18.758Z,26.34
2022-09-05T17:52:18.223Z,26.22
2022-09-05T17:54:49.835Z,26.07
2022-09-05T17:57:41.394Z,25.93
2022-09-05T18:00:49.370Z,25.74
2022-09-05T18:04:16.833Z,25.66
2022-09-05T18:06:52.863Z,25.51
2022-09-05T18:10:12.958Z,25.35
2022-09-05T18:13:12.816Z,25.22
2022-09-05T18:16:12.291Z,25.08
2022-09-05T18:19:27.815Z,25.08
2022-09-05T18:21:48.388Z,25.05
2022-09-05T18:30:26.189Z,24.85
2022-09-05T18:33:54.651Z,24.88
2022-09-05T18:36:35.893Z,24.75
2022-09-05T18:39:37.475Z,24.74
2022-09-05T18:42:26.397Z,24.65
2022-09-05T18:45:03.323Z,24.74
2022-09-05T18:47:52.990Z,24.65
2022-09-05T18:50:29.525Z,24.63
2022-09-05T18:53:10.743Z,24.56
2022-09-05T18:56:13.637Z,24.51
2022-09-05T18:58:51.539Z,24.56
2022-09-05T19:01:32.207Z,24.46
2022-09-05T19:04:04.652Z,24.41
2022-09-05T19:06:37.939Z,24.46
2022-09-05T19:09:09.774Z,24.48
2022-09-05T19:11:53.091Z,24.41
2022-09-05T19:14:33.123Z,24.33
2022-09-05T19:17:08.556Z,24.21
2022-09-05T19:20:33.514Z,24.21
2022-09-05T19:23:11.120Z,24.17
2022-09-05T19:25:42.625Z,24.07
2022-09-05T19:32:59.819Z,24.07
2022-09-05T19:36:52.545Z,24.05
2022-09-05T19:37:07.202Z,23.96
2022-09-05T19:37:30.125Z,23.87
2022-09-05T19:43:21.211Z,23.80
2022-09-05T19:47:40.430Z,23.80
2022-09-05T19:47:49.187Z,23.80
2022-09-05T19:51:16.829Z,23.65
2022-09-05T19:53:47.327Z,23.59
2022-09-05T19:56:16.947Z,23.55
2022-09-05T19:58:45.779Z,23.55
2022-09-05T20:01:14.467Z,23.49
2022-09-05T20:03:44.281Z,23.46
2022-09-05T20:06:28.963Z,23.46
2022-09-05T20:09:09.504Z,23.42
2022-09-05T20:11:45.819Z,23.41
2022-09-05T20:14:19.621Z,23.39
2022-09-05T20:16:49.821Z,23.38
2022-09-05T20:19:33.975Z,23.38
2022-09-05T20:22:34.377Z,23.46
2022-09-05T20:24:55.914Z,23.48
2022-09-05T20:27:27.048Z,23.45
2022-09-05T20:29:57.997Z,23.42
2022-09-05T20:32:40.219Z,23.39
2022-09-05T20:38:34.275Z,23.37
2022-09-05T20:43:19.750Z,23.22
2022-09-05T20:43:22.131Z,23.15
2022-09-05T20:43:53.650Z,23.08
2022-09-05T20:50:45.654Z,23.08
2022-09-05T20:54:13.576Z,23.04
2022-09-05T20:54:17.179Z,23.01
2022-09-05T20:55:39.785Z,22.98
2022-09-05T20:58:14.922Z,23.00
2022-09-05T21:01:20.639Z,23.01
2022-09-05T21:03:38.550Z,22.98
2022-09-05T21:06:23.495Z,22.94
2022-09-05T21:08:52.898Z,23.05
2022-09-05T21:11:32.166Z,23.15
2022-09-05T21:14:03.672Z,23.22
2022-09-05T21:16:35.478Z,23.18
2022-09-05T21:19:03.542Z,23.04
2022-09-05T21:21:33.092Z,23.00
2022-09-05T21:24:17.207Z,22.96
2022-09-05T21:26:49.601Z,22.96
2022-09-05T21:29:26.481Z,22.90
2022-09-05T21:32:01.730Z,22.80
2022-09-05T21:34:34.266Z,22.77
2022-09-05T21:37:07.166Z,22.73
2022-09-05T21:39:40.013Z,22.81
2022-09-05T21:42:19.933Z,22.90
2022-09-05T21:47:46.598Z,22.81
2022-09-05T21:47:53.111Z,22.68
2022-09-05T21:50:31.173Z,22.78
2022-09-05T21:53:59.646Z,22.84
2022-09-05T21:59:20.448Z,22.78
2022-09-05T21:59:22.193Z,22.77
2022-09-05T22:01:44.893Z,22.76
2022-09-05T22:04:19.007Z,22.67
2022-09-05T22:06:48.691Z,22.63
2022-09-05T22:09:19.579Z,22.66
2022-09-05T22:11:50.413Z,22.66
2022-09-05T22:14:21.160Z,22.73
2022-09-05T22:16:50.339Z,22.83
2022-09-05T22:19:37.547Z,22.77
2022-09-05T22:22:15.969Z,22.76
2022-09-05T22:24:49.663Z,22.71
2022-09-05T22:27:20.071Z,22.76
2022-09-05T22:29:51.068Z,22.77
2022-09-05T22:32:34.501Z,22.77
2022-09-05T22:35:27.139Z,22.88
2022-09-05T22:37:59.361Z,22.84
2022-09-05T22:40:28.585Z,22.98
2022-09-05T22:42:57.747Z,23.14
2022-09-05T22:45:27.438Z,23.14
2022-09-05T22:47:55.604Z,23.19
2022-09-05T22:50:24.139Z,23.17
2022-09-05T22:52:52.015Z,23.18
2022-09-05T22:55:19.877Z,23.17
2022-09-05T22:57:47.712Z,23.18
2022-09-05T23:00:15.997Z,23.18
2022-09-05T23:02:48.978Z,23.07
2022-09-05T23:05:19.561Z,22.94
2022-09-05T23:07:47.395Z,22.87
2022-09-05T23:10:15.296Z,22.80
2022-09-05T23:12:43.172Z,22.71
2022-09-05T23:15:11.739Z,22.66
2022-09-05T23:17:39.568Z,22.59
2022-09-05T23:20:10.437Z,22.52
2022-09-05T23:22:38.685Z,22.29
2022-09-05T23:25:07.283Z,22.26
2022-09-05T23:27:36.590Z,21.99
2022-09-05T23:30:06.145Z,21.57
2022-09-05T23:32:34.343Z,21.16
2022-09-05T23:35:02.262Z,20.97
2022-09-05T23:37:31.489Z,20.79
2022-09-05T23:39:59.315Z,20.66
2022-09-05T23:42:27.495Z,20.53
2022-09-05T23:44:55.285Z,20.52
2022-09-05T23:47:23.122Z,20.51
2022-09-05T23:49:50.944Z,20.55
2022-09-05T23:52:18.800Z,20.73
2022-09-05T23:54:48.085Z,20.85
2022-09-05T23:57:15.898Z,20.49
2022-09-05T23:59:43.688Z,20.36
